sensor_id;sensor_type;location;lat;lon;timestamp;P1;durP1;ratioP1;P2;durP2;ratioP2
76051;SDS011;64751;48.708;9.710;2023-05-07T14:32:39;0.10;;;0.10;;
76051;SDS011;64751;48.708;9.710;2023-05-07T14:35:07;0.10;;;0.10;;
76051;SDS011;64751;48.708;9.710;2023-05-07T14:37:36;0.28;;;0.22;;
76051;SDS011;64751;48.708;9.710;2023-05-07T14:40:04;0.30;;;0.17;;
76051;SDS011;64751;48.708;9.710;2023-05-07T14:42:32;0.10;;;0.10;;
76051;SDS011;64751;48.708;9.710;2023-05-07T14:44:59;0.10;;;0.10;;
76051;SDS011;64751;48.708;9.710;2023-05-07T14:47:27;0.17;;;0.17;;
76051;SDS011;64751;48.708;9.710;2023-05-07T14:49:56;0.30;;;0.20;;
76051;SDS011;64751;48.708;9.710;2023-05-07T14:52:24;0.20;;;0.20;;
76051;SDS011;64751;48.708;9.710;2023-05-07T14:54:53;0.17;;;0.17;;
76051;SDS011;64751;48.708;9.710;2023-05-07T14:57:20;0.20;;;0.20;;
76051;SDS011;64751;48.708;9.710;2023-05-07T14:59:48;0.10;;;0.08;;
76051;SDS011;64751;48.708;9.710;2023-05-07T15:02:15;0.25;;;0.25;;
76051;SDS011;64751;48.708;9.710;2023-05-07T15:04:44;0.05;;;0.05;;
76051;SDS011;64751;48.708;9.710;2023-05-07T15:07:14;0.30;;;0.30;;
76051;SDS011;64751;48.708;9.710;2023-05-07T15:09:42;0.20;;;0.20;;
76051;SDS011;64751;48.708;9.710;2023-05-07T15:12:10;0.10;;;0.10;;
76051;SDS011;64751;48.708;9.710;2023-05-07T15:14:38;0.10;;;0.10;;
76051;SDS011;64751;48.708;9.710;2023-05-07T15:17:06;0.10;;;0.10;;
76051;SDS011;64751;48.708;9.710;2023-05-07T15:19:34;0.10;;;0.10;;
76051;SDS011;64751;48.708;9.710;2023-05-07T15:22:01;0.32;;;0.10;;
76051;SDS011;64751;48.708;9.710;2023-05-07T15:24:30;0.10;;;0.10;;
76051;SDS011;64751;48.708;9.710;2023-05-07T15:26:58;0.10;;;0.10;;
76051;SDS011;64751;48.708;9.710;2023-05-07T15:29:27;0.03;;;0.03;;
76051;SDS011;64751;48.708;9.710;2023-05-07T15:31:56;0.20;;;0.10;;
76051;SDS011;64751;48.708;9.710;2023-05-07T15:34:24;0.20;;;0.20;;
76051;SDS011;64751;48.708;9.710;2023-05-07T15:36:51;5.55;;;2.03;;
76051;SDS011;64751;48.708;9.710;2023-05-07T15:39:19;122.00;;;42.42;;
76051;SDS011;64751;48.708;9.710;2023-05-07T15:41:48;147.93;;;46.38;;
76051;SDS011;64751;48.708;9.710;2023-05-07T15:44:15;67.70;;;23.70;;
76051;SDS011;64751;48.708;9.710;2023-05-07T15:46:43;47.13;;;19.48;;
76051;SDS011;64751;48.708;9.710;2023-05-07T15:49:10;115.65;;;43.20;;
76051;SDS011;64751;48.708;9.710;2023-05-07T15:51:38;58.38;;;22.27;;
76051;SDS011;64751;48.708;9.710;2023-05-07T15:54:05;51.17;;;22.17;;
76051;SDS011;64751;48.708;9.710;2023-05-07T15:56:33;106.82;;;37.85;;
76051;SDS011;64751;48.708;9.710;2023-05-07T15:59:02;201.35;;;63.05;;
76051;SDS011;64751;48.708;9.710;2023-05-07T16:01:29;49.85;;;23.50;;
76051;SDS011;64751;48.708;9.710;2023-05-07T16:03:57;131.90;;;51.33;;
76051;SDS011;64751;48.708;9.710;2023-05-07T16:06:25;188.95;;;62.65;;
76051;SDS011;64751;48.708;9.710;2023-05-07T16:08:52;173.55;;;56.75;;
76051;SDS011;64751;48.708;9.710;2023-05-07T16:11:20;80.35;;;29.58;;
76051;SDS011;64751;48.708;9.710;2023-05-07T16:13:47;114.80;;;41.75;;
76051;SDS011;64751;48.708;9.710;2023-05-07T16:16:16;308.23;;;103.78;;
76051;SDS011;64751;48.708;9.710;2023-05-07T16:18:44;111.95;;;36.72;;
76051;SDS011;64751;48.708;9.710;2023-05-07T16:21:11;38.95;;;17.10;;
76051;SDS011;64751;48.708;9.710;2023-05-07T16:23:39;0.40;;;0.30;;
76051;SDS011;64751;48.708;9.710;2023-05-07T16:26:07;0.30;;;0.30;;
76051;SDS011;64751;48.708;9.710;2023-05-07T16:28:34;0.20;;;0.20;;
76051;SDS011;64751;48.708;9.710;2023-05-07T16:31:02;0.17;;;0.15;;
76051;SDS011;64751;48.708;9.710;2023-05-07T16:33:31;0.10;;;0.10;;
76051;SDS011;64751;48.708;9.710;2023-05-07T16:35:58;55.80;;;18.50;;
76051;SDS011;64751;48.708;9.710;2023-05-07T16:38:26;1.08;;;0.63;;
76051;SDS011;64751;48.708;9.710;2023-05-07T16:40:57;0.17;;;0.17;;
76051;SDS011;64751;48.708;9.710;2023-05-07T16:43:25;0.45;;;0.35;;
76051;SDS011;64751;48.708;9.710;2023-05-07T16:45:53;0.10;;;0.10;;
76051;SDS011;64751;48.708;9.710;2023-05-07T16:48:21;1.10;;;1.00;;
76051;SDS011;64751;48.708;9.710;2023-05-07T16:50:50;1.90;;;1.70;;
76051;SDS011;64751;48.708;9.710;2023-05-07T16:53:17;0.50;;;0.50;;
76051;SDS011;64751;48.708;9.710;2023-05-07T16:55:45;1.88;;;1.77;;
76051;SDS011;64751;48.708;9.710;2023-05-07T16:58:13;6.32;;;5.93;;
76051;SDS011;64751;48.708;9.710;2023-05-07T17:00:41;0.85;;;0.85;;
76051;SDS011;64751;48.708;9.710;2023-05-07T17:03:09;0.15;;;0.15;;
76051;SDS011;64751;48.708;9.710;2023-05-07T17:05:36;0.20;;;0.20;;
76051;SDS011;64751;48.708;9.710;2023-05-07T17:08:05;0.10;;;0.10;;
76051;SDS011;64751;48.708;9.710;2023-05-07T17:10:33;0.15;;;0.15;;
76051;SDS011;64751;48.708;9.710;2023-05-07T17:13:01;0.10;;;0.10;;
76051;SDS011;64751;48.708;9.710;2023-05-07T17:15:28;0.20;;;0.20;;
76051;SDS011;64751;48.708;9.710;2023-05-07T17:17:56;0.10;;;0.03;;
76051;SDS011;64751;48.708;9.710;2023-05-07T17:20:23;0.20;;;0.20;;
76051;SDS011;64751;48.708;9.710;2023-05-07T17:22:52;0.00;;;0.00;;
76051;SDS011;64751;48.708;9.710;2023-05-07T17:25:21;0.10;;;0.10;;
76051;SDS011;64751;48.708;9.710;2023-05-07T17:27:49;0.13;;;0.13;;
76051;SDS011;64751;48.708;9.710;2023-05-07T17:30:16;0.20;;;0.20;;
76051;SDS011;64751;48.708;9.710;2023-05-07T17:32:44;0.13;;;0.13;;
76051;SDS011;64751;48.708;9.710;2023-05-07T17:35:11;0.28;;;0.20;;
76051;SDS011;64751;48.708;9.710;2023-05-07T17:37:39;0.30;;;0.30;;
76051;SDS011;64751;48.708;9.710;2023-05-07T17:40:11;0.20;;;0.20;;
76051;SDS011;64751;48.708;9.710;2023-05-07T17:42:41;0.20;;;0.20;;
76051;SDS011;64751;48.708;9.710;2023-05-07T17:45:09;0.10;;;0.10;;
76051;SDS011;64751;48.708;9.710;2023-05-07T17:47:37;0.10;;;0.10;;
76051;SDS011;64751;48.708;9.710;2023-05-07T17:50:05;0.10;;;0.10;;
76051;SDS011;64751;48.708;9.710;2023-05-07T17:52:36;0.28;;;0.28;;
76051;SDS011;64751;48.708;9.710;2023-05-07T17:55:03;0.10;;;0.10;;
76051;SDS011;64751;48.708;9.710;2023-05-07T17:57:31;0.20;;;0.20;;
76051;SDS011;64751;48.708;9.710;2023-05-07T18:00:01;0.13;;;0.13;;
76051;SDS011;64751;48.708;9.710;2023-05-07T18:02:32;0.10;;;0.10;;
76051;SDS011;64751;48.708;9.710;2023-05-07T18:05:00;0.20;;;0.20;;
76051;SDS011;64751;48.708;9.710;2023-05-07T18:07:28;0.17;;;0.17;;
76051;SDS011;64751;48.708;9.710;2023-05-07T18:09:55;0.20;;;0.10;;
76051;SDS011;64751;48.708;9.710;2023-05-07T18:12:23;0.20;;;0.20;;
76051;SDS011;64751;48.708;9.710;2023-05-07T18:14:51;0.20;;;0.20;;
76051;SDS011;64751;48.708;9.710;2023-05-07T18:17:20;0.10;;;0.10;;
76051;SDS011;64751;48.708;9.710;2023-05-07T18:19:49;0.17;;;0.17;;
76051;SDS011;64751;48.708;9.710;2023-05-07T18:22:17;0.10;;;0.10;;
76051;SDS011;64751;48.708;9.710;2023-05-07T18:24:44;0.10;;;0.10;;
76051;SDS011;64751;48.708;9.710;2023-05-07T18:27:12;0.43;;;0.38;;
76051;SDS011;64751;48.708;9.710;2023-05-07T18:29:39;0.03;;;0.03;;
76051;SDS011;64751;48.708;9.710;2023-05-07T18:32:07;0.10;;;0.10;;
76051;SDS011;64751;48.708;9.710;2023-05-07T18:34:36;0.03;;;0.03;;
76051;SDS011;64751;48.708;9.710;2023-05-07T18:37:03;0.08;;;0.08;;
76051;SDS011;64751;48.708;9.710;2023-05-07T18:39:31;0.17;;;0.17;;
76051;SDS011;64751;48.708;9.710;2023-05-07T18:41:59;0.17;;;0.10;;
76051;SDS011;64751;48.708;9.710;2023-05-07T18:44:26;0.10;;;0.10;;
76051;SDS011;64751;48.708;9.710;2023-05-07T18:46:56;0.10;;;0.10;;
76051;SDS011;64751;48.708;9.710;2023-05-07T18:49:24;0.03;;;0.03;;
76051;SDS011;64751;48.708;9.710;2023-05-07T18:51:53;0.10;;;0.10;;
76051;SDS011;64751;48.708;9.710;2023-05-07T18:54:21;0.10;;;0.10;;
76051;SDS011;64751;48.708;9.710;2023-05-07T18:56:49;0.20;;;0.10;;
76051;SDS011;64751;48.708;9.710;2023-05-07T18:59:17;0.10;;;0.10;;
76051;SDS011;64751;48.708;9.710;2023-05-07T19:01:44;0.20;;;0.10;;
76051;SDS011;64751;48.708;9.710;2023-05-07T19:04:12;0.10;;;0.10;;
76051;SDS011;64751;48.708;9.710;2023-05-07T19:06:41;0.10;;;0.10;;
76051;SDS011;64751;48.708;9.710;2023-05-07T19:09:10;0.10;;;0.10;;
76051;SDS011;64751;48.708;9.710;2023-05-07T19:11:37;0.10;;;0.10;;
76051;SDS011;64751;48.708;9.710;2023-05-07T19:14:05;0.05;;;0.03;;
76051;SDS011;64751;48.708;9.710;2023-05-07T19:16:33;0.10;;;0.10;;
76051;SDS011;64751;48.708;9.710;2023-05-07T19:19:00;0.10;;;0.10;;
76051;SDS011;64751;48.708;9.710;2023-05-07T19:21:28;0.13;;;0.10;;
76051;SDS011;64751;48.708;9.710;2023-05-07T19:23:56;0.47;;;0.00;;
76051;SDS011;64751;48.708;9.710;2023-05-07T19:26:25;0.00;;;0.00;;
76051;SDS011;64751;48.708;9.710;2023-05-07T19:28:53;0.22;;;0.10;;
76051;SDS011;64751;48.708;9.710;2023-05-07T19:31:22;0.10;;;0.10;;
76051;SDS011;64751;48.708;9.710;2023-05-07T19:33:52;0.10;;;0.00;;
76051;SDS011;64751;48.708;9.710;2023-05-07T19:36:20;0.05;;;0.05;;
76051;SDS011;64751;48.708;9.710;2023-05-07T19:38:47;0.10;;;0.10;;
76051;SDS011;64751;48.708;9.710;2023-05-07T19:41:18;0.10;;;0.10;;
76051;SDS011;64751;48.708;9.710;2023-05-07T19:43:47;0.13;;;0.10;;
76051;SDS011;64751;48.708;9.710;2023-05-07T19:46:15;0.00;;;0.00;;
76051;SDS011;64751;48.708;9.710;2023-05-07T19:48:42;0.20;;;0.05;;
76051;SDS011;64751;48.708;9.710;2023-05-07T19:51:10;0.28;;;0.25;;
76051;SDS011;64751;48.708;9.710;2023-05-07T19:53:38;0.00;;;0.00;;
76051;SDS011;64751;48.708;9.710;2023-05-07T19:56:06;0.03;;;0.03;;
76051;SDS011;64751;48.708;9.710;2023-05-07T19:58:35;0.00;;;0.00;;
76051;SDS011;64751;48.708;9.710;2023-05-07T20:01:05;0.03;;;0.03;;
76051;SDS011;64751;48.708;9.710;2023-05-07T20:03:33;0.10;;;0.10;;
76051;SDS011;64751;48.708;9.710;2023-05-07T20:06:01;0.10;;;0.10;;
76051;SDS011;64751;48.708;9.710;2023-05-07T20:08:29;0.22;;;0.22;;
76051;SDS011;64751;48.708;9.710;2023-05-07T20:10:57;0.50;;;0.10;;
76051;SDS011;64751;48.708;9.710;2023-05-07T20:13:25;0.10;;;0.10;;
76051;SDS011;64751;48.708;9.710;2023-05-07T20:15:55;0.30;;;0.20;;
76051;SDS011;64751;48.708;9.710;2023-05-07T20:18:25;0.00;;;0.00;;
76051;SDS011;64751;48.708;9.710;2023-05-07T20:20:54;0.00;;;0.00;;
76051;SDS011;64751;48.708;9.710;2023-05-07T20:23:22;0.20;;;0.10;;
76051;SDS011;64751;48.708;9.710;2023-05-07T20:25:50;0.03;;;0.03;;
76051;SDS011;64751;48.708;9.710;2023-05-07T20:28:17;0.10;;;0.10;;
76051;SDS011;64751;48.708;9.710;2023-05-07T20:30:45;0.00;;;0.00;;
76051;SDS011;64751;48.708;9.710;2023-05-07T20:33:13;0.08;;;0.08;;
76051;SDS011;64751;48.708;9.710;2023-05-07T20:35:42;0.10;;;0.10;;
76051;SDS011;64751;48.708;9.710;2023-05-07T20:38:10;0.10;;;0.08;;
76051;SDS011;64751;48.708;9.710;2023-05-07T20:40:39;0.20;;;0.10;;
76051;SDS011;64751;48.708;9.710;2023-05-07T20:43:07;0.10;;;0.10;;
76051;SDS011;64751;48.708;9.710;2023-05-07T20:45:34;0.10;;;0.10;;
76051;SDS011;64751;48.708;9.710;2023-05-07T20:48:02;0.03;;;0.03;;
76051;SDS011;64751;48.708;9.710;2023-05-07T20:50:30;0.03;;;0.03;;
76051;SDS011;64751;48.708;9.710;2023-05-07T20:53:00;0.10;;;0.10;;
76051;SDS011;64751;48.708;9.710;2023-05-07T20:55:27;0.10;;;0.10;;
76051;SDS011;64751;48.708;9.710;2023-05-07T20:57:55;0.10;;;0.10;;
76051;SDS011;64751;48.708;9.710;2023-05-07T21:00:23;0.10;;;0.10;;
76051;SDS011;64751;48.708;9.710;2023-05-07T21:02:50;0.10;;;0.10;;
76051;SDS011;64751;48.708;9.710;2023-05-07T21:05:18;0.38;;;0.20;;
76051;SDS011;64751;48.708;9.710;2023-05-07T21:07:46;0.10;;;0.10;;
76051;SDS011;64751;48.708;9.710;2023-05-07T21:10:15;0.10;;;0.10;;
76051;SDS011;64751;48.708;9.710;2023-05-07T21:12:43;0.10;;;0.10;;
76051;SDS011;64751;48.708;9.710;2023-05-07T21:15:10;0.10;;;0.10;;
76051;SDS011;64751;48.708;9.710;2023-05-07T21:17:38;0.08;;;0.03;;
76051;SDS011;64751;48.708;9.710;2023-05-07T21:20:06;0.10;;;0.10;;
76051;SDS011;64751;48.708;9.710;2023-05-07T21:22:35;0.10;;;0.10;;
76051;SDS011;64751;48.708;9.710;2023-05-07T21:25:02;0.10;;;0.10;;
76051;SDS011;64751;48.708;9.710;2023-05-07T21:27:32;0.30;;;0.10;;
76051;SDS011;64751;48.708;9.710;2023-05-07T21:29:59;0.08;;;0.08;;
76051;SDS011;64751;48.708;9.710;2023-05-07T21:32:31;0.10;;;0.10;;
76051;SDS011;64751;48.708;9.710;2023-05-07T21:34:59;0.10;;;0.10;;
76051;SDS011;64751;48.708;9.710;2023-05-07T21:37:26;0.03;;;0.03;;
76051;SDS011;64751;48.708;9.710;2023-05-07T21:39:54;0.00;;;0.00;;
76051;SDS011;64751;48.708;9.710;2023-05-07T21:42:21;0.10;;;0.10;;
76051;SDS011;64751;48.708;9.710;2023-05-07T21:44:50;0.00;;;0.00;;
76051;SDS011;64751;48.708;9.710;2023-05-07T21:47:18;0.00;;;0.00;;
76051;SDS011;64751;48.708;9.710;2023-05-07T21:49:46;0.10;;;0.10;;
76051;SDS011;64751;48.708;9.710;2023-05-07T21:52:14;0.10;;;0.10;;
76051;SDS011;64751;48.708;9.710;2023-05-07T21:54:42;0.10;;;0.10;;
76051;SDS011;64751;48.708;9.710;2023-05-07T21:57:10;0.10;;;0.10;;
76051;SDS011;64751;48.708;9.710;2023-05-07T21:59:38;0.10;;;0.10;;
